createdAt,value
2019-05-01T00:01:45.489Z,24.23
2019-05-01T00:04:38.949Z,25.00
2019-05-01T00:07:15.257Z,23.63
2019-05-01T00:09:43.706Z,23.10
2019-05-01T00:12:11.629Z,22.20
2019-05-01T00:14:39.481Z,21.10
2019-05-01T00:17:07.298Z,21.77
2019-05-01T00:19:35.134Z,23.37
2019-05-01T00:22:02.977Z,22.97
2019-05-01T00:24:30.931Z,22.83
2019-05-01T00:26:58.774Z,23.77
2019-05-01T00:29:26.624Z,23.90
2019-05-01T00:31:54.535Z,24.77
2019-05-01T00:34:22.414Z,23.90
2019-05-01T00:36:50.246Z,23.57
2019-05-01T00:39:18.733Z,24.43
2019-05-01T00:41:46.614Z,25.87
2019-05-01T00:44:14.538Z,24.33
2019-05-01T00:46:42.361Z,24.57
2019-05-01T00:49:10.246Z,25.40
2019-05-01T00:51:38.121Z,25.33
2019-05-01T00:54:06.070Z,24.57
2019-05-01T00:56:56.488Z,22.97
2019-05-01T00:59:41.005Z,24.03
2019-05-01T01:02:28.407Z,23.20
2019-05-01T01:04:56.316Z,24.30
2019-05-01T01:07:24.141Z,23.70
2019-05-01T01:09:51.989Z,24.83
2019-05-01T01:12:19.762Z,25.10
2019-05-01T01:14:47.647Z,23.70
2019-05-01T01:17:15.753Z,24.23
2019-05-01T01:19:43.583Z,25.17
2019-05-01T01:22:11.477Z,23.90
2019-05-01T01:24:39.497Z,24.40
2019-05-01T01:27:07.277Z,25.60
2019-05-01T01:29:35.143Z,24.60
2019-05-01T01:32:02.980Z,24.87
2019-05-01T01:34:30.844Z,24.37
2019-05-01T01:36:58.695Z,25.10
2019-05-01T01:39:26.564Z,25.67
2019-05-01T01:41:54.964Z,25.43
2019-05-01T01:44:47.311Z,24.93
2019-05-01T01:47:15.454Z,24.20
2019-05-01T01:49:43.370Z,27.13
2019-05-01T01:52:12.054Z,26.43
2019-05-01T01:54:42.508Z,27.20
2019-05-01T01:57:10.343Z,27.87
2019-05-01T01:59:38.703Z,28.53
2019-05-01T02:02:14.378Z,28.90
2019-05-01T02:05:04.820Z,29.40
2019-05-01T02:07:32.913Z,26.53
2019-05-01T02:10:01.383Z,26.97
2019-05-01T02:12:29.482Z,28.83
2019-05-01T02:14:57.304Z,27.63
2019-05-01T02:17:25.126Z,27.00
2019-05-01T02:19:53.006Z,26.77
2019-05-01T02:22:20.786Z,26.10
2019-05-01T02:24:48.590Z,25.40
2019-05-01T02:27:22.004Z,24.83
2019-05-01T02:29:53.920Z,24.70
2019-05-01T02:32:24.849Z,23.87
2019-05-01T02:34:54.840Z,23.83
2019-05-01T02:37:25.303Z,23.63
2019-05-01T02:39:57.008Z,23.87
2019-05-01T02:42:29.796Z,22.77
2019-05-01T02:45:02.374Z,22.77
2019-05-01T02:47:35.443Z,22.57
2019-05-01T02:50:07.621Z,21.00
2019-05-01T02:52:38.923Z,23.87
2019-05-01T02:55:29.572Z,21.63
2019-05-01T02:57:58.409Z,21.63
2019-05-01T03:00:26.670Z,20.23
2019-05-01T03:02:54.701Z,20.53
2019-05-01T03:05:22.551Z,20.90
2019-05-01T03:07:50.674Z,21.00
2019-05-01T03:10:18.830Z,20.17
2019-05-01T03:12:50.673Z,21.13
2019-05-01T03:15:21.229Z,21.57
2019-05-01T03:18:18.047Z,21.10
2019-05-01T03:20:54.885Z,19.50
2019-05-01T03:23:27.309Z,20.40
2019-05-01T03:25:56.121Z,21.33
2019-05-01T03:28:24.411Z,20.70
2019-05-01T03:30:52.654Z,20.43
2019-05-01T03:33:20.561Z,20.23
2019-05-01T03:35:48.699Z,20.03
2019-05-01T03:38:17.405Z,19.83
2019-05-01T03:40:45.532Z,20.27
2019-05-01T03:43:13.514Z,19.70
2019-05-01T03:45:42.113Z,19.63
2019-05-01T03:48:09.975Z,20.27
2019-05-01T03:50:38.480Z,19.40
2019-05-01T03:53:06.523Z,19.77
2019-05-01T03:55:34.340Z,21.20
2019-05-01T03:58:03.497Z,20.53
2019-05-01T04:00:45.799Z,20.37
2019-05-01T04:03:36.630Z,21.20
2019-05-01T04:06:04.916Z,19.80
2019-05-01T04:08:33.060Z,20.17
2019-05-01T04:11:01.027Z,20.40
2019-05-01T04:13:29.016Z,20.33
2019-05-01T04:15:57.314Z,20.73
2019-05-01T04:18:26.414Z,20.13
2019-05-01T04:20:54.732Z,22.00
2019-05-01T04:23:25.402Z,20.47
2019-05-01T04:25:53.803Z,21.33
2019-05-01T04:28:44.266Z,21.47
2019-05-01T04:31:28.026Z,20.90
2019-05-01T04:33:58.101Z,21.27
2019-05-01T04:36:31.489Z,20.73
2019-05-01T04:38:59.898Z,21.80
2019-05-01T04:41:28.021Z,22.47
2019-05-01T04:43:55.918Z,21.97
2019-05-01T04:46:23.770Z,22.07
2019-05-01T04:48:51.652Z,21.57
2019-05-01T04:51:19.493Z,22.40
2019-05-01T04:53:47.346Z,22.40
2019-05-01T04:56:15.453Z,22.23
2019-05-01T04:58:43.481Z,21.13
2019-05-01T05:01:11.515Z,22.17
2019-05-01T05:03:39.712Z,21.97
2019-05-01T05:06:07.947Z,23.20
2019-05-01T05:08:35.735Z,22.67
2019-05-01T05:11:09.431Z,23.10
2019-05-01T05:13:46.763Z,22.23
2019-05-01T05:16:25.691Z,21.90
2019-05-01T05:18:53.600Z,22.73
2019-05-01T05:21:21.523Z,21.37
2019-05-01T05:23:49.595Z,22.80
2019-05-01T05:26:17.601Z,22.60
2019-05-01T05:28:47.502Z,22.33
2019-05-01T05:31:17.262Z,23.23
2019-05-01T05:33:47.971Z,24.27
2019-05-01T05:36:16.893Z,22.43
2019-05-01T05:39:14.635Z,22.60
2019-05-01T05:41:43.281Z,22.43
2019-05-01T05:44:11.438Z,22.63
2019-05-01T05:46:39.584Z,23.03
2019-05-01T05:49:07.778Z,21.67
2019-05-01T05:51:51.347Z,22.20
2019-05-01T05:54:40.362Z,21.60
2019-05-01T05:57:20.228Z,21.80
2019-05-01T05:59:55.431Z,22.43
2019-05-01T06:02:35.681Z,22.80
2019-05-01T06:05:18.764Z,22.33
2019-05-01T06:08:07.362Z,22.17
2019-05-01T06:10:47.283Z,21.37
2019-05-01T06:13:37.999Z,23.03
2019-05-01T06:16:16.192Z,22.47
2019-05-01T06:18:52.578Z,21.13
2019-05-01T06:21:28.175Z,22.10
2019-05-01T06:24:06.581Z,22.30
2019-05-01T06:26:38.014Z,21.47
2019-05-01T06:29:06.549Z,21.90
2019-05-01T06:31:35.562Z,22.43
2019-05-01T06:34:03.513Z,22.13
2019-05-01T06:36:32.100Z,22.00
2019-05-01T06:39:01.489Z,22.13
2019-05-01T06:41:42.173Z,21.93
2019-05-01T06:44:19.445Z,22.83
2019-05-01T06:47:07.457Z,22.23
2019-05-01T06:50:01.169Z,21.93
2019-05-01T06:52:32.249Z,22.37
2019-05-01T06:55:00.496Z,22.77
2019-05-01T06:57:29.684Z,21.97
2019-05-01T07:00:03.130Z,22.77
2019-05-01T07:02:34.979Z,23.23
2019-05-01T07:05:01.585Z,22.40
2019-05-01T07:07:31.753Z,23.37
2019-05-01T07:10:00.514Z,23.23
2019-05-01T07:12:31.365Z,21.93
2019-05-01T07:15:01.311Z,23.53
2019-05-01T07:17:29.335Z,22.87
2019-05-01T07:20:16.814Z,23.50
2019-05-01T07:22:46.586Z,21.77
2019-05-01T07:25:15.035Z,22.87
2019-05-01T07:27:42.905Z,22.67
2019-05-01T07:30:33.120Z,20.93
2019-05-01T07:33:01.403Z,22.23
2019-05-01T07:35:32.988Z,21.47
2019-05-01T07:38:02.357Z,22.10
2019-05-01T07:40:30.242Z,21.73
2019-05-01T07:43:04.333Z,21.13
2019-05-01T07:45:54.690Z,23.23
2019-05-01T07:48:36.074Z,20.10
2019-05-01T07:51:07.019Z,20.73
2019-05-01T07:53:36.822Z,20.53
2019-05-01T07:56:07.646Z,19.77
2019-05-01T07:58:35.813Z,21.20
2019-05-01T08:01:13.143Z,22.55
2019-05-01T08:03:42.696Z,23.03
2019-05-01T08:06:08.662Z,22.60
2019-05-01T08:08:39.650Z,23.10
2019-05-01T08:11:10.153Z,23.33
2019-05-01T08:13:36.368Z,24.83
2019-05-01T08:16:07.130Z,25.17
2019-05-01T08:18:40.990Z,25.07
2019-05-01T08:21:26.212Z,26.07
2019-05-01T08:23:52.716Z,26.17
2019-05-01T08:26:20.541Z,27.23
2019-05-01T08:29:20.118Z,26.53
2019-05-01T08:32:10.305Z,26.90
2019-05-01T08:34:48.404Z,28.03
2019-05-01T08:37:08.347Z,26.97
2019-05-01T08:39:39.775Z,29.20
2019-05-01T08:42:07.062Z,29.03
2019-05-01T08:44:43.289Z,28.90
2019-05-01T08:47:20.780Z,27.97
2019-05-01T08:50:01.859Z,28.70
2019-05-01T08:52:29.651Z,31.60
2019-05-01T08:54:57.471Z,30.07
2019-05-01T08:57:29.014Z,27.97
2019-05-01T09:00:00.391Z,30.07
2019-05-01T09:02:25.722Z,29.52
2019-05-01T09:05:02.111Z,30.35
2019-05-01T09:07:24.157Z,33.15
2019-05-01T09:09:52.045Z,30.80
2019-05-01T09:12:19.837Z,32.33
2019-05-01T09:14:47.747Z,33.30
2019-05-01T09:17:15.597Z,31.57
2019-05-01T09:19:43.496Z,30.87
2019-05-01T09:22:11.446Z,29.00
2019-05-01T09:24:39.775Z,30.67
2019-05-01T09:27:33.184Z,27.40
2019-05-01T09:30:07.454Z,30.27
2019-05-01T09:32:35.301Z,26.73
2019-05-01T09:35:15.079Z,32.97
2019-05-01T09:37:33.639Z,30.23
2019-05-01T09:40:04.086Z,29.45
2019-05-01T09:42:31.212Z,26.75
2019-05-01T09:45:01.166Z,26.70
2019-05-01T09:47:29.005Z,27.85
2019-05-01T09:49:57.377Z,25.52
2019-05-01T09:53:00.989Z,26.42
2019-05-01T09:55:35.495Z,25.02
2019-05-01T09:58:03.320Z,26.55
2019-05-01T10:00:32.585Z,24.80
2019-05-01T10:03:00.420Z,21.23
2019-05-01T10:05:29.238Z,25.43
2019-05-01T10:08:00.075Z,21.75
2019-05-01T10:10:29.249Z,21.23
2019-05-01T10:12:56.782Z,20.20
2019-05-01T10:15:24.670Z,16.73
2019-05-01T10:17:52.563Z,16.40
2019-05-01T10:20:20.415Z,14.83
2019-05-01T10:22:48.276Z,18.73
2019-05-01T10:25:16.503Z,15.72
2019-05-01T10:27:52.742Z,15.18
2019-05-01T10:30:31.615Z,15.15
2019-05-01T10:33:06.723Z,16.77
2019-05-01T10:36:05.957Z,18.52
2019-05-01T10:38:33.757Z,19.73
2019-05-01T10:41:04.189Z,20.35
2019-05-01T10:43:31.304Z,21.02
2019-05-01T10:45:59.157Z,21.10
2019-05-01T10:48:27.007Z,19.05
2019-05-01T10:50:54.801Z,20.17
2019-05-01T10:53:22.759Z,23.05
2019-05-01T10:55:50.606Z,21.50
2019-05-01T10:58:20.250Z,18.55
2019-05-01T11:00:51.213Z,18.50
2019-05-01T11:03:19.051Z,19.10
2019-05-01T11:05:55.786Z,17.10
2019-05-01T11:08:17.219Z,18.15
2019-05-01T11:10:45.045Z,19.20
2019-05-01T11:13:12.922Z,18.23
2019-05-01T11:15:40.770Z,17.45
2019-05-01T11:18:08.722Z,15.72
2019-05-01T11:20:36.696Z,15.98
2019-05-01T11:23:04.678Z,13.28
2019-05-01T11:25:33.107Z,14.90
2019-05-01T11:28:00.940Z,15.65
2019-05-01T11:30:28.816Z,15.95
2019-05-01T11:33:05.189Z,16.90
2019-05-01T11:35:51.003Z,17.00
2019-05-01T11:38:44.466Z,16.82
2019-05-01T11:41:25.842Z,15.68
2019-05-01T11:43:53.803Z,15.78
2019-05-01T11:46:21.627Z,17.37
2019-05-01T11:48:49.435Z,15.25
2019-05-01T11:51:17.263Z,16.87
2019-05-01T11:53:45.064Z,16.77
2019-05-01T11:56:12.948Z,16.67
2019-05-01T11:58:40.771Z,16.85
2019-05-01T12:01:10.467Z,15.88
2019-05-01T12:03:38.323Z,15.45
2019-05-01T12:06:06.145Z,15.18
2019-05-01T12:08:34.036Z,15.35
2019-05-01T12:11:03.823Z,18.05
2019-05-01T12:13:43.206Z,13.43
2019-05-01T12:16:08.393Z,13.03
2019-05-01T12:18:36.183Z,14.38
2019-05-01T12:21:03.997Z,14.60
2019-05-01T12:23:31.773Z,16.12
2019-05-01T12:25:59.581Z,15.55
2019-05-01T12:28:27.383Z,16.17
2019-05-01T12:30:55.226Z,13.70
2019-05-01T12:33:22.997Z,14.20
2019-05-01T12:35:53.023Z,12.60
2019-05-01T12:38:20.863Z,10.30
2019-05-01T12:41:06.913Z,11.30
2019-05-01T12:43:34.709Z,11.55
2019-05-01T12:46:02.601Z,11.85
2019-05-01T12:48:30.420Z,11.10
2019-05-01T12:50:58.331Z,12.15
2019-05-01T12:53:38.284Z,11.50
2019-05-01T12:56:18.407Z,10.93
2019-05-01T12:58:47.731Z,12.73
2019-05-01T13:01:15.657Z,11.68
2019-05-01T13:03:43.482Z,10.08
2019-05-01T13:06:14.306Z,9.85
2019-05-01T13:08:41.050Z,10.38
2019-05-01T13:11:08.872Z,10.60
2019-05-01T13:13:36.698Z,10.03
2019-05-01T13:16:04.546Z,11.05
2019-05-01T13:18:32.341Z,10.32
2019-05-01T13:21:00.164Z,11.55
2019-05-01T13:23:28.024Z,10.25
2019-05-01T13:26:00.826Z,11.90
2019-05-01T13:28:42.134Z,12.35
2019-05-01T13:31:41.967Z,11.83
2019-05-01T13:34:10.219Z,10.65
2019-05-01T13:36:38.086Z,12.07
2019-05-01T13:39:09.474Z,11.88
2019-05-01T13:41:37.258Z,12.15
2019-05-01T13:44:05.221Z,13.50
2019-05-01T13:46:33.051Z,12.47
2019-05-01T13:49:00.880Z,11.95
2019-05-01T13:51:28.778Z,10.65
2019-05-01T13:53:56.693Z,11.20
2019-05-01T13:56:24.590Z,10.50
2019-05-01T13:58:52.417Z,11.73
2019-05-01T14:01:20.467Z,11.30
2019-05-01T14:03:48.264Z,10.38
2019-05-01T14:06:16.066Z,10.80
2019-05-01T14:08:43.884Z,9.93
2019-05-01T14:11:11.731Z,10.23
2019-05-01T14:13:39.547Z,10.23
2019-05-01T14:16:07.357Z,9.07
2019-05-01T14:18:35.193Z,9.40
2019-05-01T14:21:12.442Z,9.90
2019-05-01T14:23:56.636Z,9.97
2019-05-01T14:26:24.450Z,9.50
2019-05-01T14:28:52.215Z,11.30
2019-05-01T14:31:20.053Z,10.37
2019-05-01T14:33:47.849Z,9.53
2019-05-01T14:36:15.687Z,10.67
2019-05-01T14:38:43.497Z,9.80
2019-05-01T14:41:11.345Z,10.47
2019-05-01T14:43:39.249Z,9.30
2019-05-01T14:46:07.082Z,9.77
2019-05-01T14:48:34.906Z,9.43
2019-05-01T14:51:03.044Z,10.33
2019-05-01T14:53:30.876Z,9.70
2019-05-01T14:55:58.668Z,9.57
2019-05-01T14:58:26.476Z,9.30
2019-05-01T15:00:54.298Z,10.47
2019-05-01T15:03:22.154Z,11.37
2019-05-01T15:05:49.969Z,10.67
2019-05-01T15:08:17.774Z,9.60
2019-05-01T15:10:45.653Z,10.80
2019-05-01T15:13:28.753Z,10.33
2019-05-01T15:16:22.352Z,10.03
2019-05-01T15:19:09.722Z,9.53
2019-05-01T15:21:37.527Z,9.17
2019-05-01T15:24:05.506Z,9.20
2019-05-01T15:26:33.344Z,9.70
2019-05-01T15:29:01.222Z,8.57
2019-05-01T15:31:29.147Z,8.37
2019-05-01T15:33:56.960Z,8.97
2019-05-01T15:36:24.783Z,9.17
2019-05-01T15:38:52.605Z,8.37
2019-05-01T15:41:52.169Z,8.13
2019-05-01T15:44:26.278Z,8.17
2019-05-01T15:46:54.123Z,8.30
2019-05-01T15:49:21.954Z,7.93
2019-05-01T15:51:49.876Z,8.00
2019-05-01T15:54:17.676Z,8.77
2019-05-01T15:56:45.515Z,8.20
2019-05-01T15:59:13.372Z,8.97
2019-05-01T16:01:41.187Z,8.57
2019-05-01T16:04:09.004Z,9.23
2019-05-01T16:06:36.804Z,8.97
2019-05-01T16:09:06.522Z,8.77
2019-05-01T16:11:54.120Z,8.67
2019-05-01T16:14:22.145Z,8.63
2019-05-01T16:16:49.985Z,7.83
2019-05-01T16:19:17.836Z,8.53
2019-05-01T16:21:45.707Z,8.27
2019-05-01T16:24:13.503Z,8.13
2019-05-01T16:26:41.335Z,8.07
2019-05-01T16:29:09.138Z,7.90
2019-05-01T16:31:36.978Z,9.03
2019-05-01T16:34:04.789Z,9.00
2019-05-01T16:36:32.681Z,9.00
2019-05-01T16:39:18.549Z,8.67
2019-05-01T16:41:46.906Z,8.67
2019-05-01T16:44:15.611Z,8.33
2019-05-01T16:46:43.434Z,9.30
2019-05-01T16:49:11.302Z,8.80
2019-05-01T16:51:39.101Z,8.73
2019-05-01T16:54:08.046Z,8.23
2019-05-01T16:56:36.011Z,9.23
2019-05-01T16:59:04.370Z,9.40
2019-05-01T17:02:03.682Z,9.20
2019-05-01T17:05:02.936Z,9.37
2019-05-01T17:07:48.804Z,9.20
2019-05-01T17:10:31.643Z,9.63
2019-05-01T17:12:59.486Z,9.73
2019-05-01T17:15:31.826Z,9.63
2019-05-01T17:17:59.660Z,9.70
2019-05-01T17:20:27.797Z,9.23
2019-05-01T17:22:55.645Z,8.53
2019-05-01T17:25:23.480Z,9.37
2019-05-01T17:27:51.310Z,9.70
2019-05-01T17:30:35.794Z,9.23
2019-05-01T17:33:03.619Z,9.70
2019-05-01T17:35:31.502Z,10.70
2019-05-01T17:37:59.291Z,10.37
2019-05-01T17:40:27.195Z,10.77
2019-05-01T17:42:55.042Z,11.03
2019-05-01T17:45:23.091Z,11.43
2019-05-01T17:47:52.845Z,11.97
2019-05-01T17:50:21.410Z,11.90
2019-05-01T17:52:50.298Z,11.70
2019-05-01T17:55:18.183Z,12.27
2019-05-01T17:57:46.046Z,11.63
2019-05-01T18:00:33.577Z,11.77
2019-05-01T18:03:08.201Z,12.47
2019-05-01T18:06:13.531Z,11.80
2019-05-01T18:08:41.381Z,12.27
2019-05-01T18:11:13.598Z,11.37
2019-05-01T18:13:38.971Z,11.87
2019-05-01T18:16:06.760Z,11.60
2019-05-01T18:18:34.579Z,11.40
2019-05-01T18:21:02.591Z,10.90
2019-05-01T18:23:49.474Z,12.03
2019-05-01T18:26:38.896Z,11.20
2019-05-01T18:29:16.838Z,12.07
2019-05-01T18:31:44.764Z,11.67
2019-05-01T18:34:12.581Z,12.47
2019-05-01T18:36:46.031Z,12.63
2019-05-01T18:39:25.983Z,13.37
2019-05-01T18:41:55.765Z,13.73
2019-05-01T18:44:23.609Z,12.87
2019-05-01T18:46:51.640Z,14.97
2019-05-01T18:49:19.481Z,14.30
2019-05-01T18:51:48.150Z,13.87
2019-05-01T18:54:15.925Z,14.87
2019-05-01T18:56:43.795Z,15.03
2019-05-01T18:59:11.599Z,13.50
2019-05-01T19:01:39.422Z,13.13
2019-05-01T19:04:07.238Z,13.50
2019-05-01T19:06:41.280Z,13.87
2019-05-01T19:09:14.859Z,13.87
2019-05-01T19:11:37.557Z,14.53
2019-05-01T19:14:05.698Z,15.00
2019-05-01T19:16:33.602Z,14.87
2019-05-01T19:19:03.866Z,14.67
2019-05-01T19:21:32.818Z,15.80
2019-05-01T19:24:02.362Z,15.33
2019-05-01T19:26:30.480Z,16.00
2019-05-01T19:28:58.564Z,15.33
2019-05-01T19:31:26.619Z,15.03
2019-05-01T19:33:54.520Z,16.23
2019-05-01T19:36:22.336Z,15.23
2019-05-01T19:38:50.218Z,16.23
2019-05-01T19:41:18.079Z,16.80
2019-05-01T19:43:45.963Z,16.40
2019-05-01T19:46:13.867Z,16.77
2019-05-01T19:48:45.273Z,18.07
2019-05-01T19:51:11.508Z,16.63
2019-05-01T19:53:39.480Z,17.20
2019-05-01T19:56:07.482Z,17.70
2019-05-01T19:58:35.431Z,18.03
2019-05-01T20:01:04.928Z,17.13
2019-05-01T20:03:36.056Z,18.57
2019-05-01T20:06:05.341Z,18.77
2019-05-01T20:08:32.786Z,19.13
2019-05-01T20:11:00.720Z,18.77
2019-05-01T20:13:28.625Z,18.30
2019-05-01T20:15:56.563Z,18.43
2019-05-01T20:18:24.397Z,18.33
2019-05-01T20:20:52.327Z,19.63
2019-05-01T20:23:20.163Z,19.33
2019-05-01T20:25:51.069Z,18.97
2019-05-01T20:28:19.862Z,20.73
2019-05-01T20:30:49.580Z,19.97
2019-05-01T20:33:17.144Z,21.47
2019-05-01T20:35:44.938Z,19.97
2019-05-01T20:38:12.758Z,20.50
2019-05-01T20:40:40.595Z,21.00
2019-05-01T20:43:08.428Z,20.40
2019-05-01T20:45:36.348Z,21.07
2019-05-01T20:48:04.324Z,20.93
2019-05-01T20:50:32.158Z,21.23
2019-05-01T20:53:00.055Z,20.87
2019-05-01T20:55:27.727Z,21.20
2019-05-01T20:58:15.086Z,20.60
2019-05-01T21:00:43.308Z,21.70
2019-05-01T21:03:14.231Z,22.00
2019-05-01T21:05:52.564Z,21.93
2019-05-01T21:08:51.909Z,21.80
2019-05-01T21:11:23.882Z,21.33
2019-05-01T21:13:56.663Z,21.53
2019-05-01T21:16:21.775Z,22.07
2019-05-01T21:18:49.571Z,22.07
2019-05-01T21:21:17.405Z,21.90
2019-05-01T21:23:48.174Z,22.13
2019-05-01T21:26:15.842Z,22.40
2019-05-01T21:28:44.876Z,22.10
2019-05-01T21:31:13.808Z,22.40
2019-05-01T21:33:46.343Z,23.33
2019-05-01T21:36:11.385Z,22.00
2019-05-01T21:38:39.178Z,21.57
2019-05-01T21:41:07.135Z,22.27
2019-05-01T21:43:37.021Z,22.57
2019-05-01T21:46:04.700Z,23.97
2019-05-01T21:48:33.401Z,22.70
2019-05-01T21:51:03.382Z,23.10
2019-05-01T21:53:32.793Z,23.17
2019-05-01T21:56:02.119Z,22.43
2019-05-01T21:58:33.271Z,23.30
2019-05-01T22:01:01.145Z,22.83
2019-05-01T22:03:29.221Z,23.00
2019-05-01T22:05:57.038Z,21.70
2019-05-01T22:08:25.933Z,22.60
2019-05-01T22:10:57.488Z,23.63
2019-05-01T22:13:24.345Z,23.53
2019-05-01T22:15:58.330Z,22.80
2019-05-01T22:18:34.941Z,23.73
2019-05-01T22:21:18.074Z,23.40
2019-05-01T22:24:04.200Z,24.53
2019-05-01T22:26:34.573Z,24.60
2019-05-01T22:29:04.877Z,24.57
2019-05-01T22:32:01.237Z,23.83
2019-05-01T22:34:54.245Z,23.27
2019-05-01T22:37:22.210Z,23.77
2019-05-01T22:39:55.543Z,24.77
2019-05-01T22:42:23.369Z,25.63
2019-05-01T22:44:51.171Z,24.40
2019-05-01T22:47:19.087Z,25.20
2019-05-01T22:49:46.996Z,24.90
2019-05-01T22:52:14.892Z,25.33
2019-05-01T22:54:44.807Z,25.67
2019-05-01T22:57:12.982Z,25.20
2019-05-01T22:59:40.775Z,25.23
2019-05-01T23:02:15.570Z,24.00
2019-05-01T23:04:43.353Z,25.27
2019-05-01T23:07:11.763Z,25.87
2019-05-01T23:09:40.950Z,25.43
2019-05-01T23:12:08.748Z,25.03
2019-05-01T23:14:36.592Z,25.43
2019-05-01T23:17:22.813Z,25.37
2019-05-01T23:19:50.749Z,25.77
2019-05-01T23:22:19.292Z,26.00
2019-05-01T23:24:47.144Z,27.03
2019-05-01T23:27:14.956Z,26.10
2019-05-01T23:29:42.723Z,25.73
2019-05-01T23:32:11.533Z,25.43
2019-05-01T23:34:39.351Z,24.50
2019-05-01T23:37:07.276Z,24.47
2019-05-01T23:39:40.257Z,25.47
2019-05-01T23:42:04.825Z,25.17
2019-05-01T23:44:32.630Z,23.93
2019-05-01T23:47:00.408Z,25.00
2019-05-01T23:49:28.236Z,25.27
2019-05-01T23:51:58.722Z,25.10
2019-05-01T23:54:25.707Z,25.03
2019-05-01T23:56:53.459Z,25.40
2019-05-01T23:59:21.392Z,24.70
